Terminal Aerodrome Forecast
Issued by NWS

Home | Current Version | Previous Version | Text Only | Print | Product List | Glossary On
Versions: 1 2 3 4 5 6 7 8 9 10 11 12 13 14 15 16 17 18 19 20 21 22 23 24 25 26 27 28 29 30 31 32 33 34 35 36 37 38 39 40 41
000
FTUS44 KHGX 250850 AAA
TAFLBX
TAF AMD
KLBX 250850Z 2509/2606 15003KT 3SM BR SKC
      TEMPO 2509/2512 1SM BR
     FM251300 22005KT P6SM SCT030
     FM251800 17008KT P6SM SCT050
     FM260200 18004KT P6SM SCT250=

USA.gov is the U.S. government's official web portal to all federal, state and local government web resources and services.